createdAt,value
2019-01-10T00:00:07.364Z,99848.89
2019-01-10T00:02:37.729Z,99850.47
2019-01-10T00:05:09.565Z,99851.95
2019-01-10T00:07:39.868Z,99852.38
2019-01-10T00:10:13.783Z,99851.74
2019-01-10T00:12:43.714Z,99853.83
2019-01-10T00:15:16.606Z,99854.34
2019-01-10T00:17:47.130Z,99860.44
2019-01-10T00:20:17.980Z,99866.81
2019-01-10T00:22:49.787Z,99871.40
2019-01-10T00:25:20.469Z,99868.48
2019-01-10T00:27:50.746Z,99864.59
2019-01-10T00:30:21.034Z,99869.67
2019-01-10T00:32:51.753Z,99872.86
2019-01-10T00:35:23.711Z,99875.27
2019-01-10T00:37:54.297Z,99879.66
2019-01-10T00:40:24.767Z,99877.42
2019-01-10T00:42:55.783Z,99880.66
2019-01-10T00:45:26.418Z,99888.70
2019-01-10T00:47:56.820Z,99892.36
2019-01-10T00:50:27.409Z,99895.34
2019-01-10T00:52:57.785Z,99903.13
2019-01-10T00:55:28.447Z,99904.06
2019-01-10T00:57:58.749Z,99902.11
2019-01-10T01:00:29.577Z,99909.54
2019-01-10T01:02:59.939Z,99909.54
2019-01-10T01:05:30.509Z,99917.34
2019-01-10T01:08:00.810Z,99920.84
2019-01-10T01:10:31.471Z,99924.36
2019-01-10T01:13:01.829Z,99929.00
2019-01-10T01:15:32.667Z,99930.22
2019-01-10T01:18:03.415Z,99936.02
2019-01-10T01:20:33.678Z,99939.86
2019-01-10T01:23:04.295Z,99945.40
2019-01-10T01:25:34.643Z,99942.42
2019-01-10T01:28:04.838Z,99948.66
2019-01-10T01:30:35.747Z,99950.56
2019-01-10T01:33:06.432Z,99949.52
2019-01-10T01:35:36.727Z,99958.36
2019-01-10T01:38:07.929Z,99953.71
2019-01-10T01:40:38.516Z,99960.81
2019-01-10T01:43:08.804Z,99962.28
2019-01-10T01:45:39.429Z,99962.45
2019-01-10T01:48:09.882Z,99961.51
2019-01-10T01:50:40.448Z,99968.27
2019-01-10T01:53:10.763Z,99968.06
2019-01-10T01:55:41.434Z,99976.44
2019-01-10T01:58:12.762Z,99977.91
2019-01-10T02:00:43.650Z,99979.75
2019-01-10T02:03:14.254Z,99981.11
2019-01-10T02:05:44.550Z,99985.14
2019-01-10T02:08:14.905Z,99985.31
2019-01-10T02:10:45.554Z,99992.94
2019-01-10T02:13:16.847Z,99993.80
2019-01-10T02:15:47.750Z,99993.09
2019-01-10T02:18:18.812Z,99988.72
2019-01-10T02:20:49.457Z,99999.05
2019-01-10T02:23:19.800Z,99995.76
2019-01-10T02:25:50.412Z,99996.21
2019-01-10T02:28:20.803Z,99998.99
2019-01-10T02:30:51.366Z,100006.73
2019-01-10T02:33:21.678Z,100006.73
2019-01-10T02:35:52.258Z,100003.20
2019-01-10T02:38:22.732Z,100007.61
2019-01-10T02:40:53.317Z,100012.64
2019-01-10T02:43:26.623Z,100017.55
2019-01-10T02:45:55.750Z,100024.01
2019-01-10T02:48:32.418Z,100024.85
2019-01-10T02:51:02.725Z,100026.83
2019-01-10T02:53:33.398Z,100026.64
2019-01-10T02:56:03.774Z,100028.86
2019-01-10T02:58:34.368Z,100037.16
2019-01-10T03:01:04.809Z,100034.00
2019-01-10T03:03:35.444Z,100042.18
2019-01-10T03:06:05.851Z,100044.23
2019-01-10T03:08:36.729Z,100046.58
2019-01-10T03:11:07.552Z,100044.05
2019-01-10T03:13:37.878Z,100041.63
2019-01-10T03:16:08.561Z,100046.66
2019-01-10T03:18:38.878Z,100048.89
2019-01-10T03:21:09.468Z,100052.34
2019-01-10T03:23:39.848Z,100055.03
2019-01-10T03:26:10.469Z,100058.19
2019-01-10T03:28:40.799Z,100058.19
2019-01-10T03:31:11.505Z,100059.50
2019-01-10T03:33:41.799Z,100061.36
2019-01-10T03:36:12.857Z,100056.45
2019-01-10T03:38:43.550Z,100057.08
2019-01-10T03:41:13.821Z,100059.23
2019-01-10T03:43:47.306Z,100060.81
2019-01-10T03:46:16.798Z,100067.67
2019-01-10T03:48:47.389Z,100070.66
2019-01-10T03:51:17.744Z,100068.43
2019-01-10T03:53:48.430Z,100062.30
2019-01-10T03:56:18.937Z,100069.74
2019-01-10T03:58:49.519Z,100068.63
2019-01-10T04:01:19.901Z,100067.99
2019-01-10T04:03:50.420Z,100078.60
2019-01-10T04:06:20.790Z,100079.61
2019-01-10T04:08:51.629Z,100078.97
2019-01-10T04:11:21.934Z,100086.32
2019-01-10T04:13:57.512Z,100092.77
2019-01-10T04:16:24.905Z,100090.97
2019-01-10T04:18:55.569Z,100091.72
2019-01-10T04:21:25.942Z,100093.70
2019-01-10T04:23:56.530Z,100099.66
2019-01-10T04:26:26.846Z,100100.48
2019-01-10T04:28:57.487Z,100100.77
2019-01-10T04:31:27.975Z,100103.46
2019-01-10T04:33:58.417Z,100111.09
2019-01-10T04:36:30.184Z,100117.61
2019-01-10T04:39:00.774Z,100118.17
2019-01-10T04:41:31.311Z,100118.36
2019-01-10T04:44:06.933Z,100119.96
2019-01-10T04:46:34.064Z,100121.08
2019-01-10T04:49:04.740Z,100124.06
2019-01-10T04:51:35.366Z,100125.44
2019-01-10T04:54:06.034Z,100130.47
2019-01-10T04:56:36.489Z,100129.35
2019-01-10T04:59:06.676Z,100129.27
2019-01-10T05:01:37.272Z,100134.02
2019-01-10T05:04:07.640Z,100134.56
2019-01-10T05:06:37.957Z,100139.41
2019-01-10T05:09:09.638Z,100136.23
2019-01-10T05:11:40.193Z,100148.08
2019-01-10T05:14:16.465Z,100149.56
2019-01-10T05:16:42.613Z,100149.57
2019-01-10T05:19:12.897Z,100152.63
2019-01-10T05:21:43.452Z,100155.72
2019-01-10T05:24:16.078Z,100153.99
2019-01-10T05:26:46.731Z,100159.95
2019-01-10T05:29:17.340Z,100165.98
2019-01-10T05:31:47.889Z,100168.33
2019-01-10T05:34:18.513Z,100170.98
2019-01-10T05:36:48.804Z,100171.52
2019-01-10T05:39:19.431Z,100175.07
2019-01-10T05:41:49.683Z,100181.14
2019-01-10T05:44:26.537Z,100183.64
2019-01-10T05:46:52.670Z,100188.09
2019-01-10T05:49:23.269Z,100186.17
2019-01-10T05:51:53.814Z,100190.28
2019-01-10T05:54:24.540Z,100193.66
2019-01-10T05:56:54.743Z,100201.20
2019-01-10T05:59:25.382Z,100202.89
2019-01-10T06:01:55.861Z,100206.17
2019-01-10T06:04:26.472Z,100202.16
2019-01-10T06:06:56.751Z,100209.23
2019-01-10T06:09:27.307Z,100212.03
2019-01-10T06:11:57.729Z,100213.34
2019-01-10T06:14:35.566Z,100217.27
2019-01-10T06:17:00.569Z,100215.33
2019-01-10T06:19:30.912Z,100225.48
2019-01-10T06:22:01.520Z,100225.09
2019-01-10T06:24:31.697Z,100228.19
2019-01-10T06:27:01.960Z,100235.16
2019-01-10T06:29:32.513Z,100233.23
2019-01-10T06:32:02.926Z,100239.02
2019-01-10T06:34:33.490Z,100245.78
2019-01-10T06:37:03.895Z,100250.00
2019-01-10T06:39:34.504Z,100252.68
2019-01-10T06:42:04.818Z,100252.02
2019-01-10T06:44:44.358Z,100259.36
2019-01-10T06:47:07.900Z,100268.31
2019-01-10T06:49:38.361Z,100272.88
2019-01-10T06:52:08.558Z,100268.31
2019-01-10T06:54:39.001Z,100275.58
2019-01-10T06:57:09.513Z,100275.20
2019-01-10T06:59:39.814Z,100278.02
2019-01-10T07:02:10.495Z,100281.49
2019-01-10T07:04:40.713Z,100285.60
2019-01-10T07:07:11.327Z,100291.28
2019-01-10T07:09:41.998Z,100290.21
2019-01-10T07:12:12.447Z,100297.11
2019-01-10T07:14:43.100Z,100296.76
2019-01-10T07:17:15.865Z,100303.10
2019-01-10T07:19:49.007Z,100310.02
2019-01-10T07:22:20.431Z,100302.63
2019-01-10T07:24:55.495Z,100302.18
2019-01-10T07:27:25.803Z,100305.06
2019-01-10T07:29:59.584Z,100311.95
2019-01-10T07:32:29.960Z,100309.27
2019-01-10T07:35:05.477Z,100309.64
2019-01-10T07:37:35.773Z,100309.53
2019-01-10T07:40:12.638Z,100314.13
2019-01-10T07:42:42.935Z,100321.58
2019-01-10T07:45:24.930Z,100321.02
2019-01-10T07:47:55.724Z,100317.85
2019-01-10T07:50:37.284Z,100320.73
2019-01-10T07:53:10.269Z,100322.03
2019-01-10T07:55:40.987Z,100322.03
2019-01-10T07:58:11.487Z,100325.31
2019-01-10T08:00:41.851Z,100320.92
2019-01-10T08:03:12.407Z,100324.65
2019-01-10T08:05:42.736Z,100329.80
2019-01-10T08:08:14.397Z,100335.39
2019-01-10T08:10:44.821Z,100342.30
2019-01-10T08:13:15.433Z,100344.91
2019-01-10T08:15:46.164Z,100347.89
2019-01-10T08:18:16.520Z,100346.03
2019-01-10T08:20:46.818Z,100351.25
2019-01-10T08:23:17.600Z,100359.35
2019-01-10T08:25:47.938Z,100361.03
2019-01-10T08:28:18.509Z,100366.17
2019-01-10T08:30:48.891Z,100364.39
2019-01-10T08:33:19.388Z,100366.45
2019-01-10T08:35:49.690Z,100369.80
2019-01-10T08:38:21.905Z,100371.30
2019-01-10T08:40:52.481Z,100369.91
2019-01-10T08:43:22.742Z,100369.16
2019-01-10T08:45:53.380Z,100369.54
2019-01-10T08:48:23.911Z,100377.75
2019-01-10T08:50:54.420Z,100377.64
2019-01-10T08:53:24.678Z,100384.47
2019-01-10T08:55:55.288Z,100383.61
2019-01-10T08:58:25.767Z,100381.00
2019-01-10T09:00:56.754Z,100388.76
2019-01-10T09:03:27.312Z,100394.62
2019-01-10T09:05:57.632Z,100388.47
2019-01-10T09:08:27.969Z,100389.22
2019-01-10T09:10:58.548Z,100397.35
2019-01-10T09:13:28.837Z,100402.47
2019-01-10T09:15:59.445Z,100398.09
2019-01-10T09:18:29.800Z,100405.00
2019-01-10T09:21:04.458Z,100404.08
2019-01-10T09:23:32.629Z,100409.30
2019-01-10T09:26:02.637Z,100408.44
2019-01-10T09:28:32.696Z,100412.17
2019-01-10T09:31:03.406Z,100417.95
2019-01-10T09:33:33.504Z,100417.35
2019-01-10T09:36:03.608Z,100420.69
2019-01-10T09:38:33.774Z,100424.33
2019-01-10T09:41:04.227Z,100427.82
2019-01-10T09:43:34.509Z,100428.98
2019-01-10T09:46:04.864Z,100425.98
2019-01-10T09:48:35.403Z,100433.81
2019-01-10T09:51:05.672Z,100431.05
2019-01-10T09:53:35.977Z,100436.19
2019-01-10T09:56:06.617Z,100437.87
2019-01-10T09:58:36.797Z,100435.56
2019-01-10T10:01:07.444Z,100440.05
2019-01-10T10:03:37.688Z,100440.67
2019-01-10T10:06:08.316Z,100451.13
2019-01-10T10:08:38.624Z,100444.44
2019-01-10T10:11:09.160Z,100443.78
2019-01-10T10:13:39.305Z,100447.82
2019-01-10T10:16:09.648Z,100448.92
2019-01-10T10:18:40.222Z,100444.33
2019-01-10T10:21:10.586Z,100449.48
2019-01-10T10:23:40.836Z,100451.54
2019-01-10T10:26:11.391Z,100446.47
2019-01-10T10:28:41.484Z,100451.31
2019-01-10T10:31:11.801Z,100453.55
2019-01-10T10:33:42.228Z,100454.34
2019-01-10T10:36:12.675Z,100462.96
2019-01-10T10:38:43.295Z,100464.53
2019-01-10T10:41:13.416Z,100463.03
2019-01-10T10:43:44.893Z,100462.72
2019-01-10T10:46:15.380Z,100468.83
2019-01-10T10:48:45.602Z,100462.09
2019-01-10T10:51:15.870Z,100474.66
2019-01-10T10:53:46.428Z,100471.64
2019-01-10T10:56:16.660Z,100468.66
2019-01-10T10:58:47.110Z,100472.49
2019-01-10T11:01:17.404Z,100472.49
2019-01-10T11:03:47.668Z,100472.16
2019-01-10T11:06:17.678Z,100468.62
2019-01-10T11:08:47.820Z,100477.45
2019-01-10T11:11:18.385Z,100479.83
2019-01-10T11:13:50.949Z,100479.83
2019-01-10T11:16:21.332Z,100482.38
2019-01-10T11:18:51.582Z,100476.66
2019-01-10T11:21:21.904Z,100471.71
2019-01-10T11:23:52.469Z,100475.02
2019-01-10T11:26:22.612Z,100467.36
2019-01-10T11:28:52.929Z,100474.05
2019-01-10T11:31:23.434Z,100474.35
2019-01-10T11:33:54.078Z,100474.55
2019-01-10T11:36:24.383Z,100468.03
2019-01-10T11:38:54.610Z,100464.77
2019-01-10T11:41:26.973Z,100471.91
2019-01-10T11:43:57.388Z,100466.32
2019-01-10T11:46:27.603Z,100467.91
2019-01-10T11:48:57.771Z,100468.69
2019-01-10T11:51:28.291Z,100469.86
2019-01-10T11:53:58.472Z,100472.74
2019-01-10T11:56:28.717Z,100474.63
2019-01-10T11:58:59.219Z,100472.84
2019-01-10T12:01:29.781Z,100467.66
2019-01-10T12:04:00.307Z,100471.33
2019-01-10T12:06:30.779Z,100476.11
2019-01-10T12:09:01.128Z,100471.98
2019-01-10T12:11:32.516Z,100471.98
2019-01-10T12:14:02.873Z,100465.29
2019-01-10T12:16:33.456Z,100462.78
2019-01-10T12:19:03.599Z,100467.14
2019-01-10T12:21:33.844Z,100461.76
2019-01-10T12:24:04.393Z,100460.94
2019-01-10T12:26:34.715Z,100460.94
2019-01-10T12:29:05.985Z,100462.58
2019-01-10T12:31:36.551Z,100468.80
2019-01-10T12:34:06.780Z,100472.67
2019-01-10T12:36:37.246Z,100467.18
2019-01-10T12:39:08.984Z,100476.28
2019-01-10T12:41:39.476Z,100477.92
2019-01-10T12:44:18.802Z,100478.05
2019-01-10T12:46:49.332Z,100474.25
2019-01-10T12:49:19.638Z,100474.25
2019-01-10T12:51:50.229Z,100480.98
2019-01-10T12:54:22.014Z,100478.14
2019-01-10T12:56:52.293Z,100488.89
2019-01-10T12:59:22.507Z,100480.67
2019-01-10T13:01:52.674Z,100488.73
2019-01-10T13:04:23.152Z,100489.97
2019-01-10T13:06:53.380Z,100491.37
2019-01-10T13:09:23.581Z,100491.34
2019-01-10T13:11:54.049Z,100496.31
2019-01-10T13:14:24.394Z,100493.78
2019-01-10T13:16:54.555Z,100491.84
2019-01-10T13:19:24.880Z,100500.54
2019-01-10T13:21:55.338Z,100497.11
2019-01-10T13:24:28.534Z,100484.56
2019-01-10T13:26:58.764Z,100492.50
2019-01-10T13:29:29.407Z,100493.80
2019-01-10T13:32:00.847Z,100493.80
2019-01-10T13:34:31.295Z,100494.52
2019-01-10T13:37:01.616Z,100492.34
2019-01-10T13:39:31.878Z,100498.95
2019-01-10T13:42:02.311Z,100494.99
2019-01-10T13:44:33.008Z,100502.34
2019-01-10T13:47:03.577Z,100502.50
2019-01-10T13:49:33.699Z,100505.05
2019-01-10T13:52:04.024Z,100501.41
2019-01-10T13:54:34.268Z,100505.27
2019-01-10T13:57:04.751Z,100502.77
2019-01-10T13:59:34.974Z,100507.72
2019-01-10T14:02:05.366Z,100515.09
2019-01-10T14:04:35.527Z,100521.56
2019-01-10T14:07:06.223Z,100519.22
2019-01-10T14:09:36.404Z,100479.80
2019-01-10T14:12:06.666Z,100511.19
2019-01-10T14:14:36.892Z,100515.96
2019-01-10T14:17:10.290Z,100513.95
2019-01-10T14:19:40.529Z,100516.41
2019-01-10T14:22:11.233Z,100527.98
2019-01-10T14:24:41.701Z,100522.54
2019-01-10T14:27:12.666Z,100535.41
2019-01-10T14:29:43.410Z,100540.25
2019-01-10T14:32:13.699Z,100537.90
2019-01-10T14:34:44.172Z,100541.43
2019-01-10T14:37:14.777Z,100541.43
2019-01-10T14:39:45.164Z,100546.48
2019-01-10T14:42:15.682Z,100546.70
2019-01-10T14:44:46.753Z,100544.86
2019-01-10T14:47:17.477Z,100544.58
2019-01-10T14:49:47.658Z,100547.56
2019-01-10T14:52:18.325Z,100549.25
2019-01-10T14:54:48.612Z,100551.76
2019-01-10T14:57:18.738Z,100549.79
2019-01-10T14:59:49.244Z,100556.59
2019-01-10T15:02:19.640Z,100556.59
2019-01-10T15:04:49.689Z,100563.48
2019-01-10T15:07:20.214Z,100557.19
2019-01-10T15:09:50.629Z,100562.19
2019-01-10T15:12:20.790Z,100564.79
2019-01-10T15:14:51.529Z,100573.47
2019-01-10T15:17:21.944Z,100575.06
2019-01-10T15:19:53.674Z,100566.86
2019-01-10T15:22:24.220Z,100583.03
2019-01-10T15:24:54.304Z,100573.16
2019-01-10T15:27:24.515Z,100583.89
2019-01-10T15:29:54.754Z,100579.29
2019-01-10T15:32:25.419Z,100579.51
2019-01-10T15:34:55.676Z,100585.80
2019-01-10T15:37:26.182Z,100589.17
2019-01-10T15:39:57.578Z,100588.44
2019-01-10T15:42:27.858Z,100588.44
2019-01-10T15:44:58.548Z,100593.42
2019-01-10T15:47:28.840Z,100597.11
2019-01-10T15:50:01.420Z,100603.63
2019-01-10T15:52:31.922Z,100610.14
2019-01-10T15:55:02.458Z,100612.19
2019-01-10T15:57:32.572Z,100606.69
2019-01-10T16:00:02.940Z,100613.20
2019-01-10T16:02:33.324Z,100620.93
2019-01-10T16:05:03.553Z,100617.25
2019-01-10T16:07:34.007Z,100624.98
2019-01-10T16:10:05.454Z,100626.29
2019-01-10T16:12:35.681Z,100627.98
2019-01-10T16:15:07.747Z,100629.66
2019-01-10T16:17:38.263Z,100633.34
2019-01-10T16:20:10.085Z,100638.34
2019-01-10T16:22:40.591Z,100638.34
2019-01-10T16:25:11.906Z,100642.69
2019-01-10T16:27:42.491Z,100633.25
2019-01-10T16:30:21.254Z,100639.55
2019-01-10T16:32:51.394Z,100644.05
2019-01-10T16:35:21.634Z,100645.06
2019-01-10T16:37:52.063Z,100644.74
2019-01-10T16:40:22.530Z,100642.75
2019-01-10T16:42:53.551Z,100642.75
2019-01-10T16:45:25.958Z,100644.68
2019-01-10T16:47:56.574Z,100640.77
2019-01-10T16:50:26.883Z,100645.22
2019-01-10T16:52:57.475Z,100649.12
2019-01-10T16:55:27.642Z,100651.34
2019-01-10T16:57:58.216Z,100650.10
2019-01-10T17:00:33.495Z,100646.28
2019-01-10T17:03:03.911Z,100655.02
2019-01-10T17:05:34.395Z,100652.41
2019-01-10T17:08:05.299Z,100646.28
2019-01-10T17:10:35.422Z,100652.33
2019-01-10T17:13:05.649Z,100645.05
2019-01-10T17:15:35.842Z,100657.86
2019-01-10T17:18:06.350Z,100661.91
2019-01-10T17:20:36.532Z,100650.05
2019-01-10T17:23:08.989Z,100655.25
2019-01-10T17:25:40.695Z,100653.95
2019-01-10T17:28:11.142Z,100659.38
2019-01-10T17:30:41.405Z,100652.88
2019-01-10T17:33:11.656Z,100659.38
2019-01-10T17:35:42.236Z,100663.13
2019-01-10T17:38:12.693Z,100667.75
2019-01-10T17:40:43.212Z,100669.20
2019-01-10T17:43:14.794Z,100668.66
2019-01-10T17:45:45.431Z,100663.69
2019-01-10T17:48:15.594Z,100666.38
2019-01-10T17:50:45.648Z,100666.76
2019-01-10T17:53:16.309Z,100675.19
2019-01-10T17:55:46.404Z,100677.87
2019-01-10T17:58:16.506Z,100673.88
2019-01-10T18:00:46.914Z,100681.16
2019-01-10T18:03:17.367Z,100679.86
2019-01-10T18:05:47.596Z,100689.92
2019-01-10T18:08:17.954Z,100687.61
2019-01-10T18:10:48.152Z,100687.84
2019-01-10T18:13:18.228Z,100696.02
2019-01-10T18:15:48.535Z,100691.25
2019-01-10T18:18:19.727Z,100697.70
2019-01-10T18:20:50.256Z,100703.84
2019-01-10T18:23:20.403Z,100695.19
2019-01-10T18:25:50.442Z,100699.86
2019-01-10T18:28:20.576Z,100704.07
2019-01-10T18:30:50.778Z,100703.98
2019-01-10T18:33:21.341Z,100709.49
2019-01-10T18:35:52.683Z,100709.49
2019-01-10T18:38:23.292Z,100701.70
2019-01-10T18:40:53.486Z,100705.25
2019-01-10T18:43:23.518Z,100695.78
2019-01-10T18:45:53.662Z,100696.79
2019-01-10T18:48:23.829Z,100707.83
2019-01-10T18:50:54.194Z,100710.59
2019-01-10T18:53:25.264Z,100709.46
2019-01-10T18:55:55.454Z,100711.27
2019-01-10T18:58:25.827Z,100709.52
2019-01-10T19:00:57.233Z,100715.09
2019-01-10T19:03:27.629Z,100715.70
2019-01-10T19:05:57.798Z,100717.06
2019-01-10T19:08:28.485Z,100726.04
2019-01-10T19:10:58.748Z,100725.27
2019-01-10T19:13:29.112Z,100735.87
2019-01-10T19:15:59.416Z,100736.29
2019-01-10T19:18:29.612Z,100740.55
2019-01-10T19:21:00.117Z,100742.20
2019-01-10T19:23:30.823Z,100747.98
2019-01-10T19:26:02.276Z,100746.14
2019-01-10T19:28:32.759Z,100750.53
2019-01-10T19:31:04.663Z,100757.76
2019-01-10T19:33:35.138Z,100751.98
2019-01-10T19:36:05.730Z,100752.28
2019-01-10T19:38:36.287Z,100748.84
2019-01-10T19:41:06.682Z,100750.09
2019-01-10T19:43:37.098Z,100753.38
2019-01-10T19:46:07.747Z,100751.89
2019-01-10T19:48:38.095Z,100760.72
2019-01-10T19:51:08.740Z,100752.45
2019-01-10T19:53:39.214Z,100757.91
2019-01-10T19:56:09.517Z,100757.91
2019-01-10T19:58:45.339Z,100759.77
2019-01-10T20:01:15.818Z,100764.69
2019-01-10T20:03:46.353Z,100756.56
2019-01-10T20:06:16.606Z,100759.47
2019-01-10T20:08:46.952Z,100758.31
2019-01-10T20:11:17.569Z,100765.13
2019-01-10T20:13:47.824Z,100765.13
2019-01-10T20:16:18.581Z,100764.92
2019-01-10T20:18:48.764Z,100765.92
2019-01-10T20:21:19.317Z,100760.71
2019-01-10T20:23:49.706Z,100769.05
2019-01-10T20:26:20.759Z,100770.59
2019-01-10T20:28:51.437Z,100769.52
2019-01-10T20:31:21.826Z,100770.98
2019-01-10T20:33:52.298Z,100778.20
2019-01-10T20:36:22.434Z,100770.67
2019-01-10T20:38:52.952Z,100768.30
2019-01-10T20:41:23.417Z,100766.39
2019-01-10T20:43:53.691Z,100763.63
2019-01-10T20:46:23.998Z,100773.14
2019-01-10T20:48:54.767Z,100767.06
2019-01-10T20:51:25.251Z,100767.31
2019-01-10T20:53:55.458Z,100769.45
2019-01-10T20:56:25.663Z,100765.24
2019-01-10T20:58:56.092Z,100772.20
2019-01-10T21:01:26.982Z,100775.05
2019-01-10T21:03:57.449Z,100775.20
2019-01-10T21:06:27.823Z,100776.12
2019-01-10T21:08:58.523Z,100783.02
2019-01-10T21:11:28.657Z,100764.17
2019-01-10T21:13:58.839Z,100764.39
2019-01-10T21:16:29.514Z,100769.58
2019-01-10T21:18:59.653Z,100774.91
2019-01-10T21:21:30.139Z,100762.28
2019-01-10T21:24:01.980Z,100773.23
2019-01-10T21:26:32.515Z,100773.33
2019-01-10T21:29:02.934Z,100781.94
2019-01-10T21:31:35.062Z,100776.02
2019-01-10T21:34:05.995Z,100779.08
2019-01-10T21:36:36.592Z,100786.43
2019-01-10T21:39:08.258Z,100781.73
2019-01-10T21:41:38.854Z,100775.25
2019-01-10T21:44:09.747Z,100780.79
2019-01-10T21:46:40.497Z,100780.27
2019-01-10T21:49:11.126Z,100780.27
2019-01-10T21:51:42.062Z,100786.34
2019-01-10T21:54:12.819Z,100786.25
2019-01-10T21:56:44.832Z,100789.18
2019-01-10T21:59:15.914Z,100790.92
2019-01-10T22:01:46.747Z,100783.48
2019-01-10T22:04:17.912Z,100778.88
2019-01-10T22:06:48.380Z,100780.19
2019-01-10T22:09:18.757Z,100776.29
2019-01-10T22:11:49.319Z,100785.41
2019-01-10T22:14:19.787Z,100788.30
2019-01-10T22:16:50.522Z,100782.63
2019-01-10T22:19:21.160Z,100786.16
2019-01-10T22:21:51.898Z,100782.57
2019-01-10T22:24:22.715Z,100783.55
2019-01-10T22:26:53.209Z,100781.54
2019-01-10T22:29:23.522Z,100781.00
2019-01-10T22:31:53.720Z,100784.68
2019-01-10T22:34:23.883Z,100779.67
2019-01-10T22:36:54.403Z,100783.05
2019-01-10T22:39:24.920Z,100790.48
2019-01-10T22:41:56.141Z,100792.52
2019-01-10T22:44:26.520Z,100788.80
2019-01-10T22:46:56.794Z,100792.41
2019-01-10T22:49:27.530Z,100790.96
2019-01-10T22:51:57.735Z,100797.56
2019-01-10T22:54:28.321Z,100794.58
2019-01-10T22:56:58.914Z,100791.82
2019-01-10T22:59:29.890Z,100791.05
2019-01-10T23:02:00.919Z,100795.78
2019-01-10T23:04:37.728Z,100792.32
2019-01-10T23:07:21.161Z,100790.09
2019-01-10T23:09:51.657Z,100792.41
2019-01-10T23:12:22.885Z,100789.27
2019-01-10T23:14:53.565Z,100784.59
2019-01-10T23:17:25.575Z,100789.18
2019-01-10T23:19:56.365Z,100786.13
2019-01-10T23:22:26.731Z,100791.11
2019-01-10T23:24:58.806Z,100792.20
2019-01-10T23:27:29.502Z,100794.28
2019-01-10T23:29:59.988Z,100791.97
2019-01-10T23:32:30.466Z,100791.29
2019-01-10T23:35:00.910Z,100789.22
2019-01-10T23:37:31.525Z,100793.33
2019-01-10T23:40:02.111Z,100791.16
2019-01-10T23:42:32.772Z,100787.25
2019-01-10T23:45:03.641Z,100794.68
2019-01-10T23:47:34.107Z,100788.46
2019-01-10T23:50:05.118Z,100784.98
2019-01-10T23:52:36.035Z,100790.78
2019-01-10T23:55:06.763Z,100786.25
2019-01-10T23:57:37.489Z,100783.20
